Time;durP1;ratioP1;P1;durP2;ratioP2;P2;SDS_P1;SDS_P2;PMS_P1;PMS_P2;Temp;Humidity;BMP_temperature;BMP_pressure;BME280_temperature;BME280_humidity;BME280_pressure;Samples;Min_cycle;Max_cycle;Signal;HPM_P1;HPM_P2
2023/09/01 00:01:53;;;;;;;12.00;8.68;;;;;;;;;;4956845;28;20031;-76
2023/09/01 00:04:31;;;;;;;11.95;8.88;;;;;;;;;;4973064;28;20046;-75
2023/09/01 00:06:57;;;;;;;12.57;9.10;;;;;;;;;;4957267;28;20062;-75
2023/09/01 00:09:23;;;;;;;11.70;9.48;;;;;;;;;;4957351;28;20499;-76
2023/09/01 00:11:49;;;;;;;19.42;9.10;;;;;;;;;;4974083;28;20045;-76
2023/09/01 00:14:15;;;;;;;10.48;9.48;;;;;;;;;;4941013;28;20035;-74
2023/09/01 00:16:41;;;;;;;12.93;9.88;;;;;;;;;;4956644;28;20181;-76
2023/09/01 00:19:08;;;;;;;12.52;8.35;;;;;;;;;;4974078;28;20030;-76
2023/09/01 00:21:34;;;;;;;10.23;8.57;;;;;;;;;;4956730;28;20054;-76
2023/09/01 00:24:03;;;;;;;11.35;9.88;;;;;;;;;;4971888;28;20415;-75
2023/09/01 00:26:29;;;;;;;10.40;8.80;;;;;;;;;;4941339;28;20121;-76
2023/09/01 00:28:55;;;;;;;14.23;10.27;;;;;;;;;;4972541;28;20046;-75
2023/09/01 00:31:21;;;;;;;20.23;9.38;;;;;;;;;;4972884;28;20581;-77
2023/09/01 00:33:47;;;;;;;10.18;8.95;;;;;;;;;;4956792;28;20113;-76
2023/09/01 00:36:13;;;;;;;12.15;8.35;;;;;;;;;;4940759;28;20038;-76
2023/09/01 00:38:39;;;;;;;11.63;7.72;;;;;;;;;;4973688;28;20034;-76
2023/09/01 00:41:06;;;;;;;15.90;9.23;;;;;;;;;;4973996;28;20050;-76
2023/09/01 00:43:34;;;;;;;14.02;9.30;;;;;;;;;;4925127;28;20116;-76
2023/09/01 00:46:00;;;;;;;15.68;8.35;;;;;;;;;;4957848;28;20039;-77
2023/09/01 00:48:26;;;;;;;13.35;9.00;;;;;;;;;;4987833;28;20043;-76
2023/09/01 00:50:52;;;;;;;11.90;8.13;;;;;;;;;;4972366;28;20049;-78
2023/09/01 00:53:19;;;;;;;8.63;7.78;;;;;;;;;;4962339;28;20515;-76
2023/09/01 00:55:45;;;;;;;12.07;7.88;;;;;;;;;;4956104;28;20039;-76
2023/09/01 00:58:12;;;;;;;11.18;8.70;;;;;;;;;;4956405;28;20038;-77
2023/09/01 01:00:39;;;;;;;9.65;8.50;;;;;;;;;;4955799;28;20042;-75
2023/09/01 01:03:05;;;;;;;12.75;8.73;;;;;;;;;;4972225;28;20076;-77
2023/09/01 01:05:40;;;;;;;9.55;8.63;;;;;;;;;;4972269;28;20435;-76
2023/09/01 01:08:10;;;;;;;12.73;7.88;;;;;;;;;;4924797;28;20405;-75
2023/09/01 01:10:38;;;;;;;21.27;10.00;;;;;;;;;;4956003;28;20038;-77
2023/09/01 01:13:06;;;;;;;13.13;9.40;;;;;;;;;;4956673;28;20039;-76
2023/09/01 01:15:32;;;;;;;10.85;8.02;;;;;;;;;;4956159;28;20039;-76
2023/09/01 01:17:59;;;;;;;11.00;9.05;;;;;;;;;;4908794;28;20195;-76
2023/09/01 01:20:26;;;;;;;13.25;9.25;;;;;;;;;;4956774;28;20042;-76
2023/09/01 01:23:14;;;;;;;10.05;9.15;;;;;;;;;;4973629;28;20411;-76
2023/09/01 01:25:47;;;;;;;15.43;9.50;;;;;;;;;;4971848;28;20202;-76
2023/09/01 01:28:13;;;;;;;12.25;9.40;;;;;;;;;;4924097;28;20388;-75
2023/09/01 01:30:39;;;;;;;9.15;8.23;;;;;;;;;;4972425;28;20143;-76
2023/09/01 01:33:05;;;;;;;12.20;9.55;;;;;;;;;;4972938;28;20121;-77
2023/09/01 01:35:31;;;;;;;11.88;9.00;;;;;;;;;;4955461;28;20122;-77
2023/09/01 01:38:08;;;;;;;11.75;9.50;;;;;;;;;;4955606;28;20482;-75
2023/09/01 01:40:34;;;;;;;10.05;9.13;;;;;;;;;;4955317;28;20038;-75
2023/09/01 01:43:00;;;;;;;14.05;9.27;;;;;;;;;;4939655;28;20046;-77
2023/09/01 01:45:26;;;;;;;10.02;9.10;;;;;;;;;;4940425;28;20047;-77
2023/09/01 01:47:52;;;;;;;11.20;9.25;;;;;;;;;;4973083;28;20302;-76
2023/09/01 01:50:19;;;;;;;21.30;9.82;;;;;;;;;;4939427;28;20422;-76
2023/09/01 01:52:45;;;;;;;11.50;9.15;;;;;;;;;;4955916;28;20085;-76
2023/09/01 01:55:11;;;;;;;12.90;9.80;;;;;;;;;;4972518;28;20499;-77
2023/09/01 01:57:38;;;;;;;14.27;9.48;;;;;;;;;;4956950;28;20495;-76
2023/09/01 02:00:11;;;;;;;13.00;9.60;;;;;;;;;;4940837;28;20538;-76
2023/09/01 02:02:42;;;;;;;12.32;9.48;;;;;;;;;;4956319;28;20051;-77
2023/09/01 02:05:08;;;;;;;12.55;9.48;;;;;;;;;;4974670;28;20043;-76
2023/09/01 02:07:34;;;;;;;11.15;10.05;;;;;;;;;;4974216;28;20039;-76
2023/09/01 02:10:05;;;;;;;16.77;10.38;;;;;;;;;;4972499;28;20038;-75
2023/09/01 02:12:33;;;;;;;16.40;10.25;;;;;;;;;;4974303;28;20038;-76
2023/09/01 02:15:00;;;;;;;16.48;10.45;;;;;;;;;;4956836;28;20178;-76
2023/09/01 02:17:29;;;;;;;13.13;10.32;;;;;;;;;;4972201;28;20070;-78
2023/09/01 02:19:56;;;;;;;10.98;9.85;;;;;;;;;;4971434;28;20034;-77
2023/09/01 02:22:22;;;;;;;13.73;9.90;;;;;;;;;;4955134;28;20045;-75
2023/09/01 02:24:48;;;;;;;11.82;10.32;;;;;;;;;;4938974;28;20042;-76
2023/09/01 02:27:14;;;;;;;12.57;10.50;;;;;;;;;;4972498;28;20134;-77
2023/09/01 02:29:40;;;;;;;13.50;10.63;;;;;;;;;;4972225;28;20125;-76
2023/09/01 02:32:07;;;;;;;18.35;11.20;;;;;;;;;;4971176;28;20261;-76
2023/09/01 02:34:33;;;;;;;13.30;11.68;;;;;;;;;;4955002;28;20109;-75
2023/09/01 02:36:59;;;;;;;14.52;11.60;;;;;;;;;;4939002;28;20042;-77
2023/09/01 02:39:25;;;;;;;17.30;11.80;;;;;;;;;;4954645;28;20127;-74
2023/09/01 02:41:51;;;;;;;15.93;11.93;;;;;;;;;;4971975;28;20148;-76
2023/09/01 02:44:17;;;;;;;13.80;11.65;;;;;;;;;;4971572;28;20042;-75
2023/09/01 02:46:43;;;;;;;17.20;13.13;;;;;;;;;;4971266;28;20043;-77
2023/09/01 02:49:12;;;;;;;17.75;12.30;;;;;;;;;;4970454;28;20053;-75
2023/09/01 02:51:38;;;;;;;18.25;12.10;;;;;;;;;;4954739;28;20035;-75
2023/09/01 02:54:04;;;;;;;16.60;11.23;;;;;;;;;;4954046;28;20137;-75
2023/09/01 02:56:30;;;;;;;13.10;11.75;;;;;;;;;;4954200;28;20030;-76
2023/09/01 02:58:57;;;;;;;12.68;11.48;;;;;;;;;;4953750;28;20042;-77
2023/09/01 03:01:23;;;;;;;12.52;10.45;;;;;;;;;;4954125;28;20035;-75
2023/09/01 03:03:49;;;;;;;12.57;11.13;;;;;;;;;;4969744;28;20051;-76
2023/09/01 03:06:16;;;;;;;12.02;10.60;;;;;;;;;;4971338;28;20031;-76
2023/09/01 03:08:42;;;;;;;17.67;11.10;;;;;;;;;;4954258;28;20034;-75
2023/09/01 03:11:08;;;;;;;13.50;9.05;;;;;;;;;;4954310;28;20475;-77
2023/09/01 03:13:34;;;;;;;17.08;10.90;;;;;;;;;;4971802;28;20053;-77
2023/09/01 03:16:02;;;;;;;12.00;9.77;;;;;;;;;;4970594;28;20430;-76
2023/09/01 03:18:28;;;;;;;17.45;9.48;;;;;;;;;;4970666;28;20034;-76
2023/09/01 03:20:55;;;;;;;13.05;10.10;;;;;;;;;;4954112;28;20450;-77
2023/09/01 03:23:22;;;;;;;18.38;10.27;;;;;;;;;;4938198;28;20035;-77
2023/09/01 03:25:57;;;;;;;17.63;9.60;;;;;;;;;;4953604;28;20046;-76
2023/09/01 03:28:25;;;;;;;13.70;9.82;;;;;;;;;;4971816;28;20037;-79
2023/09/01 03:30:51;;;;;;;14.48;9.88;;;;;;;;;;4969967;28;20047;-77
2023/09/01 03:33:19;;;;;;;19.33;8.55;;;;;;;;;;4954622;28;20057;-77
2023/09/01 03:35:45;;;;;;;13.27;8.10;;;;;;;;;;4970252;28;20499;-76
2023/09/01 03:38:11;;;;;;;11.18;7.80;;;;;;;;;;4954566;28;20102;-78
2023/09/01 03:40:37;;;;;;;14.70;8.20;;;;;;;;;;4972497;28;20038;-77
2023/09/01 03:43:03;;;;;;;10.15;8.75;;;;;;;;;;4939985;28;20074;-77
2023/09/01 03:45:32;;;;;;;18.75;9.48;;;;;;;;;;4939339;28;20066;-77
2023/09/01 03:47:58;;;;;;;13.25;8.13;;;;;;;;;;4972744;28;20065;-78
2023/09/01 03:50:24;;;;;;;12.85;8.20;;;;;;;;;;4983530;28;20054;-76
2023/09/01 03:52:50;;;;;;;14.35;8.93;;;;;;;;;;4952166;28;20026;-78
2023/09/01 03:55:17;;;;;;;13.27;8.80;;;;;;;;;;4959164;28;20043;-76
2023/09/01 03:57:43;;;;;;;18.05;9.27;;;;;;;;;;4972997;28;20026;-78
2023/09/01 04:00:11;;;;;;;19.33;8.13;;;;;;;;;;4973820;28;20511;-77
2023/09/01 04:02:40;;;;;;;;;;;;;;;;;;4975207;28;20115;-78
2023/09/01 04:05:06;;;;;;;15.00;8.85;;;;;;;;;;4974526;28;20354;-77
2023/09/01 04:07:33;;;;;;;10.82;8.80;;;;;;;;;;4941506;28;20050;-78
2023/09/01 04:09:59;;;;;;;30.92;8.35;;;;;;;;;;4973260;28;20046;-77
2023/09/01 04:12:25;;;;;;;15.55;8.00;;;;;;;;;;4941287;28;20065;-77
2023/09/01 04:14:51;;;;;;;17.77;8.95;;;;;;;;;;4974422;28;20040;-79
2023/09/01 04:17:17;;;;;;;8.40;7.20;;;;;;;;;;4973678;28;20050;-76
2023/09/01 04:19:49;;;;;;;15.15;8.55;;;;;;;;;;4974663;28;20046;-78
2023/09/01 04:22:15;;;;;;;14.57;8.07;;;;;;;;;;4973986;28;20081;-77
2023/09/01 04:24:41;;;;;;;15.98;8.65;;;;;;;;;;4974368;28;20523;-76
2023/09/01 04:27:07;;;;;;;13.25;8.55;;;;;;;;;;4925081;28;20034;-77
2023/09/01 04:29:33;;;;;;;11.43;9.15;;;;;;;;;;4972906;28;20090;-78
2023/09/01 04:32:00;;;;;;;11.73;8.43;;;;;;;;;;4972601;28;20062;-77
2023/09/01 04:34:26;;;;;;;13.07;8.98;;;;;;;;;;4956735;28;20047;-76
2023/09/01 04:36:52;;;;;;;10.32;8.32;;;;;;;;;;4940913;28;20039;-78
2023/09/01 04:39:19;;;;;;;14.27;8.52;;;;;;;;;;4972975;28;20130;-77
2023/09/01 04:41:45;;;;;;;14.32;8.27;;;;;;;;;;4941355;28;20062;-76
2023/09/01 04:44:13;;;;;;;16.42;8.35;;;;;;;;;;4973108;28;20120;-76
2023/09/01 04:46:39;;;;;;;13.18;8.10;;;;;;;;;;4972571;28;20065;-78
2023/09/01 04:49:06;;;;;;;11.57;8.40;;;;;;;;;;4940563;28;20137;-77
2023/09/01 04:51:32;;;;;;;16.05;9.43;;;;;;;;;;4956532;28;20089;-77
2023/09/01 04:53:58;;;;;;;17.17;8.48;;;;;;;;;;4972516;28;20038;-77
2023/09/01 04:56:24;;;;;;;11.85;6.35;;;;;;;;;;4955809;28;20392;-78
2023/09/01 04:58:50;;;;;;;17.85;8.32;;;;;;;;;;4972354;28;20054;-77
2023/09/01 05:01:16;;;;;;;10.63;8.25;;;;;;;;;;4956589;28;20039;-77
2023/09/01 05:03:42;;;;;;;15.25;8.45;;;;;;;;;;4956466;28;20213;-77
2023/09/01 05:06:10;;;;;;;13.00;9.27;;;;;;;;;;4924407;28;20121;-78
2023/09/01 05:08:37;;;;;;;13.88;7.97;;;;;;;;;;4956791;28;20045;-76
2023/09/01 05:11:06;;;;;;;15.93;8.53;;;;;;;;;;4940365;28;20042;-77
2023/09/01 05:13:33;;;;;;;14.13;8.15;;;;;;;;;;4972349;28;20778;-78
2023/09/01 05:15:59;;;;;;;15.25;8.93;;;;;;;;;;4956294;28;20042;-77
2023/09/01 05:18:25;;;;;;;21.33;8.75;;;;;;;;;;4972121;28;20535;-78
2023/09/01 05:20:52;;;;;;;21.75;8.50;;;;;;;;;;4955860;28;20507;-77
2023/09/01 05:23:18;;;;;;;17.27;7.55;;;;;;;;;;4924460;28;20126;-77
2023/09/01 05:25:50;;;;;;;12.82;9.00;;;;;;;;;;4955817;28;20051;-77
2023/09/01 05:28:16;;;;;;;11.00;7.90;;;;;;;;;;4973449;28;20027;-77
2023/09/01 05:30:42;;;;;;;17.67;8.18;;;;;;;;;;4955739;28;20475;-77
2023/09/01 05:33:08;;;;;;;17.40;8.30;;;;;;;;;;4972594;28;20037;-77
2023/09/01 05:35:34;;;;;;;25.02;8.30;;;;;;;;;;4971634;28;20499;-78
2023/09/01 05:38:01;;;;;;;16.85;6.88;;;;;;;;;;4971527;28;20058;-78
2023/09/01 05:40:27;;;;;;;13.45;6.85;;;;;;;;;;4972987;28;20066;-78
2023/09/01 05:42:53;;;;;;;21.10;8.07;;;;;;;;;;4972723;28;20562;-78
2023/09/01 05:45:19;;;;;;;21.27;8.50;;;;;;;;;;4972606;28;20138;-78
2023/09/01 05:47:45;;;;;;;16.60;7.82;;;;;;;;;;4955098;28;20035;-78
2023/09/01 05:50:12;;;;;;;16.25;8.23;;;;;;;;;;4939459;28;20575;-78
2023/09/01 05:52:38;;;;;;;16.52;8.07;;;;;;;;;;4955253;28;20085;-77
2023/09/01 05:55:04;;;;;;;13.98;7.97;;;;;;;;;;4955071;28;20042;-77
2023/09/01 05:57:30;;;;;;;14.00;8.18;;;;;;;;;;4955023;28;20035;-78
2023/09/01 05:59:58;;;;;;;14.82;8.15;;;;;;;;;;4954855;28;20541;-76
2023/09/01 06:02:30;;;;;;;14.13;7.10;;;;;;;;;;4972361;28;20116;-78
2023/09/01 06:04:56;;;;;;;21.60;7.72;;;;;;;;;;4954873;28;20133;-76
2023/09/01 06:07:22;;;;;;;27.35;7.82;;;;;;;;;;4971058;28;20138;-76
2023/09/01 06:09:50;;;;;;;8.70;6.80;;;;;;;;;;4972211;28;20038;-76
2023/09/01 06:12:16;;;;;;;20.85;7.20;;;;;;;;;;4971967;28;20038;-77
2023/09/01 06:14:42;;;;;;;28.30;7.28;;;;;;;;;;4954686;28;20571;-77
2023/09/01 06:17:08;;;;;;;19.58;7.13;;;;;;;;;;4970960;28;20045;-78
2023/09/01 06:19:34;;;;;;;17.67;8.23;;;;;;;;;;4972419;28;20061;-76
2023/09/01 06:22:00;;;;;;;15.00;6.55;;;;;;;;;;4953666;28;20030;-78
2023/09/01 06:24:26;;;;;;;15.30;6.68;;;;;;;;;;4972132;28;20140;-79
2023/09/01 06:26:53;;;;;;;17.25;6.75;;;;;;;;;;4938978;28;20110;-77
2023/09/01 06:29:19;;;;;;;10.77;6.25;;;;;;;;;;4938663;28;20070;-78
2023/09/01 06:31:45;;;;;;;16.80;6.53;;;;;;;;;;4972054;28;20069;-78
2023/09/01 06:34:13;;;;;;;16.63;6.63;;;;;;;;;;4938752;28;20038;-77
2023/09/01 06:36:39;;;;;;;12.75;6.97;;;;;;;;;;4971764;28;20146;-77
2023/09/01 06:39:06;;;;;;;24.15;7.55;;;;;;;;;;4971810;28;20038;-77
2023/09/01 06:41:33;;;;;;;14.05;7.22;;;;;;;;;;4954795;28;20062;-78
2023/09/01 06:44:00;;;;;;;15.00;7.00;;;;;;;;;;4972122;28;20126;-78
2023/09/01 06:46:26;;;;;;;12.25;6.47;;;;;;;;;;4979861;28;20031;-77
2023/09/01 06:48:54;;;;;;;15.50;6.65;;;;;;;;;;4966106;28;20039;-77
2023/09/01 06:51:20;;;;;;;6.70;6.10;;;;;;;;;;4976395;28;20046;-77
2023/09/01 06:53:46;;;;;;;13.25;6.03;;;;;;;;;;4955224;28;20352;-77
2023/09/01 06:56:12;;;;;;;13.18;6.40;;;;;;;;;;4971707;28;20039;-77
2023/09/01 06:58:38;;;;;;;10.63;5.85;;;;;;;;;;4954581;28;20109;-77
2023/09/01 07:01:08;;;;;;;11.55;5.30;;;;;;;;;;4971456;28;20065;-77
2023/09/01 07:03:35;;;;;;;13.27;7.18;;;;;;;;;;4971515;28;20066;-76
2023/09/01 07:06:01;;;;;;;20.67;6.15;;;;;;;;;;4971368;28;20109;-77
2023/09/01 07:08:28;;;;;;;14.02;6.18;;;;;;;;;;4954030;28;20038;-78
2023/09/01 07:10:58;;;;;;;15.77;5.65;;;;;;;;;;4970366;28;20337;-77
2023/09/01 07:13:27;;;;;;;17.33;6.03;;;;;;;;;;4970572;28;20527;-77
2023/09/01 07:15:54;;;;;;;10.02;5.70;;;;;;;;;;4954256;28;20568;-77
2023/09/01 07:18:21;;;;;;;13.35;5.63;;;;;;;;;;4938633;28;20065;-77
2023/09/01 07:20:47;;;;;;;15.52;5.68;;;;;;;;;;4954534;28;20042;-76
2023/09/01 07:23:13;;;;;;;7.25;4.70;;;;;;;;;;4971408;28;20034;-76
2023/09/01 07:25:44;;;;;;;9.40;5.75;;;;;;;;;;4971317;28;20105;-78
2023/09/01 07:28:11;;;;;;;11.07;5.18;;;;;;;;;;4954380;28;20121;-76
2023/09/01 07:30:37;;;;;;;7.20;4.75;;;;;;;;;;4971377;28;20042;-77
2023/09/01 07:33:04;;;;;;;6.07;4.68;;;;;;;;;;4970443;28;20038;-78
2023/09/01 07:35:30;;;;;;;8.23;5.13;;;;;;;;;;4958022;28;20047;-79
2023/09/01 07:37:56;;;;;;;6.90;4.75;;;;;;;;;;4957601;28;20097;-77
2023/09/01 07:40:23;;;;;;;5.68;4.32;;;;;;;;;;4975254;28;20545;-78
2023/09/01 07:42:52;;;;;;;7.88;4.72;;;;;;;;;;4975196;28;20105;-78
2023/09/01 07:45:18;;;;;;;6.55;4.63;;;;;;;;;;4974864;28;20051;-77
2023/09/01 07:47:44;;;;;;;9.18;4.35;;;;;;;;;;4975006;28;20037;-77
2023/09/01 07:50:10;;;;;;;11.05;5.07;;;;;;;;;;4974851;28;20059;-79
2023/09/01 07:52:36;;;;;;;15.38;4.57;;;;;;;;;;4957854;28;20035;-79
2023/09/01 07:55:05;;;;;;;7.10;4.70;;;;;;;;;;4941246;28;20043;-78
2023/09/01 07:57:31;;;;;;;9.30;4.50;;;;;;;;;;4975271;28;20030;-78
2023/09/01 07:59:58;;;;;;;9.40;4.07;;;;;;;;;;4974760;28;20646;-77
2023/09/01 08:02:27;;;;;;;5.25;3.90;;;;;;;;;;4973765;28;20058;-76
2023/09/01 08:04:53;;;;;;;6.95;4.55;;;;;;;;;;4973963;28;20059;-79
2023/09/01 08:07:19;;;;;;;7.65;4.25;;;;;;;;;;4975081;28;20078;-79
2023/09/01 08:09:46;;;;;;;12.10;4.85;;;;;;;;;;4973301;28;20043;-78
2023/09/01 08:12:12;;;;;;;5.05;4.30;;;;;;;;;;4974402;28;20037;-77
2023/09/01 08:14:38;;;;;;;8.35;4.28;;;;;;;;;;4949930;28;20035;-77
2023/09/01 08:17:03;;;;;;;9.10;4.85;;;;;;;;;;4955504;28;20112;-79
2023/09/01 08:19:30;;;;;;;10.25;4.05;;;;;;;;;;4970841;28;20121;-78
2023/09/01 08:21:57;;;;;;;4.38;4.07;;;;;;;;;;4965339;28;20058;-78
2023/09/01 08:24:23;;;;;;;7.20;4.53;;;;;;;;;;4940971;28;20081;-79
2023/09/01 08:26:49;;;;;;;6.22;5.63;;;;;;;;;;4957001;28;20109;-78
2023/09/01 08:29:15;;;;;;;7.38;4.35;;;;;;;;;;4971739;28;20503;-78
2023/09/01 08:31:44;;;;;;;4.40;4.00;;;;;;;;;;4952114;28;20037;-77
2023/09/01 08:34:10;;;;;;;;;;;;;;;;;;4974928;28;20043;-78
2023/09/01 08:36:37;;;;;;;5.50;4.32;;;;;;;;;;4956701;28;19920;-78
2023/09/01 08:39:04;;;;;;;8.40;3.60;;;;;;;;;;4968726;28;20093;-78
2023/09/01 08:41:29;;;;;;;11.55;4.57;;;;;;;;;;4953626;28;20037;-76
2023/09/01 08:43:57;;;;;;;7.00;4.15;;;;;;;;;;4970411;28;20031;-78
2023/09/01 08:46:23;;;;;;;6.22;4.32;;;;;;;;;;4954284;28;20406;-78
2023/09/01 08:48:49;;;;;;;4.53;3.45;;;;;;;;;;4955181;28;20035;-78
2023/09/01 08:51:15;;;;;;;5.28;3.40;;;;;;;;;;4939010;28;20043;-78
2023/09/01 08:53:42;;;;;;;3.60;3.30;;;;;;;;;;4940183;28;20030;-78
2023/09/01 08:56:10;;;;;;;11.52;7.53;;;;;;;;;;4957086;28;20051;-77
2023/09/01 08:58:36;;;;;;;5.63;3.83;;;;;;;;;;4973749;28;20077;-77
2023/09/01 09:01:03;;;;;;;5.50;3.53;;;;;;;;;;4973619;28;20123;-78
2023/09/01 09:03:29;;;;;;;4.50;3.10;;;;;;;;;;4973262;28;20089;-77
2023/09/01 09:05:55;;;;;;;4.78;3.75;;;;;;;;;;4973495;28;20129;-78
2023/09/01 09:08:22;;;;;;;5.00;4.50;;;;;;;;;;4956096;28;20037;-77
2023/09/01 09:10:48;;;;;;;4.75;3.90;;;;;;;;;;4955896;28;20064;-77
2023/09/01 09:13:21;;;;;;;4.18;3.78;;;;;;;;;;4973453;28;20082;-77
2023/09/01 09:16:06;;;;;;;3.67;3.38;;;;;;;;;;4940276;28;20049;-77
2023/09/01 09:18:32;;;;;;;8.82;3.50;;;;;;;;;;4973711;28;20499;-78
2023/09/01 09:20:58;;;;;;;7.10;3.75;;;;;;;;;;4956065;28;20038;-76
2023/09/01 09:23:53;;;;;;;7.65;4.03;;;;;;;;;;4972211;28;20131;-77
2023/09/01 09:26:26;;;;;;;4.18;3.78;;;;;;;;;;4939740;28;20047;-77
2023/09/01 09:28:52;;;;;;;4.18;3.78;;;;;;;;;;4973861;28;20042;-78
2023/09/01 09:31:27;;;;;;;7.10;4.50;;;;;;;;;;4957047;28;20124;-77
2023/09/01 09:33:53;;;;;;;8.13;3.97;;;;;;;;;;4974717;28;20499;-77
2023/09/01 09:36:31;;;;;;;11.77;3.60;;;;;;;;;;4956755;28;20042;-77
2023/09/01 09:38:57;;;;;;;5.50;3.80;;;;;;;;;;4973058;28;20034;-77
2023/09/01 09:41:23;;;;;;;6.90;4.35;;;;;;;;;;4964520;28;20038;-77
2023/09/01 09:43:49;;;;;;;4.55;4.20;;;;;;;;;;4951230;28;20038;-75
2023/09/01 09:46:15;;;;;;;4.28;3.88;;;;;;;;;;4942776;28;20508;-77
2023/09/01 09:48:41;;;;;;;8.98;4.25;;;;;;;;;;4956839;28;20113;-77
2023/09/01 09:51:11;;;;;;;5.82;3.80;;;;;;;;;;4956594;28;20078;-77
2023/09/01 09:53:38;;;;;;;5.00;3.58;;;;;;;;;;4956484;28;20553;-77
2023/09/01 09:56:18;;;;;;;6.07;3.85;;;;;;;;;;4956418;28;20043;-77
2023/09/01 09:58:44;;;;;;;6.30;3.72;;;;;;;;;;4973346;28;20085;-77
2023/09/01 10:01:35;;;;;;;4.47;4.07;;;;;;;;;;4959144;28;20031;-77
2023/09/01 10:04:04;;;;;;;6.43;3.63;;;;;;;;;;4939253;28;20038;-78
2023/09/01 10:06:34;;;;;;;5.30;3.60;;;;;;;;;;4939192;28;20034;-77
2023/09/01 10:09:06;;;;;;;6.90;4.22;;;;;;;;;;4939116;28;20035;-79
2023/09/01 10:11:34;;;;;;;6.50;4.05;;;;;;;;;;4939870;28;20093;-77
2023/09/01 10:14:00;;;;;;;5.85;3.88;;;;;;;;;;4955056;28;20045;-76
2023/09/01 10:16:27;;;;;;;5.35;3.97;;;;;;;;;;4939412;28;20102;-77
2023/09/01 10:19:14;;;;;;;5.82;3.90;;;;;;;;;;4955350;28;20034;-77
2023/09/01 10:21:41;;;;;;;6.32;4.18;;;;;;;;;;4939075;28;20050;-77
2023/09/01 10:24:11;;;;;;;4.93;3.67;;;;;;;;;;4938713;28;20042;-77
2023/09/01 10:26:38;;;;;;;4.20;3.80;;;;;;;;;;4938559;28;20083;-78
2023/09/01 10:29:04;;;;;;;5.75;3.63;;;;;;;;;;4938586;28;20045;-77
2023/09/01 10:31:31;;;;;;;3.40;3.20;;;;;;;;;;4922783;28;20500;-77
2023/09/01 10:34:04;;;;;;;3.78;3.40;;;;;;;;;;4938478;28;20027;-77
2023/09/01 10:36:31;;;;;;;3.85;3.55;;;;;;;;;;4938403;28;20034;-77
2023/09/01 10:39:19;;;;;;;4.07;3.67;;;;;;;;;;4923028;28;20418;-76
2023/09/01 10:41:51;;;;;;;7.05;3.70;;;;;;;;;;4938283;28;20066;-78
2023/09/01 10:44:21;;;;;;;5.30;3.70;;;;;;;;;;4922724;28;20090;-78
2023/09/01 10:46:49;;;;;;;6.57;4.10;;;;;;;;;;4922418;28;20027;-77
2023/09/01 10:49:15;;;;;;;4.50;4.03;;;;;;;;;;4938844;28;20035;-77
2023/09/01 10:51:41;;;;;;;5.40;3.67;;;;;;;;;;4941508;28;20054;-77
2023/09/01 10:54:28;;;;;;;3.95;3.65;;;;;;;;;;4942157;28;20039;-77
2023/09/01 10:56:57;;;;;;;4.47;3.85;;;;;;;;;;4861935;29;20045;-78
2023/09/01 10:59:27;;;;;;;5.47;3.90;;;;;;;;;;4927672;28;20100;-78
2023/09/01 11:01:53;;;;;;;5.43;3.90;;;;;;;;;;4954014;28;20038;-77
2023/09/01 11:04:24;;;;;;;10.45;4.00;;;;;;;;;;4937872;28;20039;-78
2023/09/01 11:07:03;;;;;;;4.43;3.47;;;;;;;;;;4971778;28;20050;-78
2023/09/01 11:09:33;;;;;;;6.18;3.80;;;;;;;;;;4954216;28;20037;-77
2023/09/01 11:12:02;;;;;;;6.38;3.50;;;;;;;;;;4967882;28;20066;-77
2023/09/01 11:14:29;;;;;;;4.97;4.05;;;;;;;;;;4929410;28;20039;-78
2023/09/01 11:17:00;;;;;;;5.60;3.33;;;;;;;;;;4937644;28;20034;-76
2023/09/01 11:19:48;;;;;;;4.55;3.50;;;;;;;;;;4952627;28;20030;-76
2023/09/01 11:22:14;;;;;;;4.03;3.72;;;;;;;;;;4917125;28;20039;-77
2023/09/01 11:24:44;;;;;;;3.60;3.35;;;;;;;;;;4913336;28;20424;-78
2023/09/01 11:27:11;;;;;;;12.43;3.38;;;;;;;;;;4913653;28;20034;-77
2023/09/01 11:29:37;;;;;;;4.05;3.65;;;;;;;;;;4970597;28;20065;-79
2023/09/01 11:32:08;;;;;;;5.30;3.20;;;;;;;;;;4936155;28;20039;-77
2023/09/01 11:34:38;;;;;;;4.43;3.50;;;;;;;;;;4929550;28;20178;-77
2023/09/01 11:37:04;;;;;;;3.70;3.40;;;;;;;;;;4953378;28;20033;-76
2023/09/01 11:39:30;;;;;;;5.18;3.15;;;;;;;;;;4937659;28;20043;-76
2023/09/01 11:41:56;;;;;;;6.05;3.70;;;;;;;;;;4954029;28;20031;-77
2023/09/01 11:44:27;;;;;;;4.82;3.63;;;;;;;;;;4935750;28;20157;-79
2023/09/01 11:46:53;;;;;;;3.83;3.53;;;;;;;;;;4935744;28;20031;-78
2023/09/01 11:49:19;;;;;;;8.88;4.07;;;;;;;;;;4937648;28;20042;-77
2023/09/01 11:51:45;;;;;;;5.85;3.38;;;;;;;;;;4952705;28;20031;-77
2023/09/01 11:54:11;;;;;;;8.65;3.78;;;;;;;;;;4953694;28;20044;-77
2023/09/01 11:56:37;;;;;;;4.95;3.60;;;;;;;;;;4970660;28;20169;-78
2023/09/01 11:59:03;;;;;;;4.95;3.22;;;;;;;;;;4953165;28;20214;-78
2023/09/01 12:01:34;;;;;;;4.63;3.40;;;;;;;;;;4937164;28;20188;-77
2023/09/01 12:04:07;;;;;;;7.80;3.80;;;;;;;;;;4938341;28;20425;-79
2023/09/01 12:06:44;;;;;;;4.88;3.78;;;;;;;;;;4938021;28;20035;-77
2023/09/01 12:09:11;;;;;;;3.80;3.50;;;;;;;;;;4938877;28;20042;-77
2023/09/01 12:11:54;;;;;;;5.10;3.67;;;;;;;;;;4953456;28;20086;-77
2023/09/01 12:14:26;;;;;;;3.75;3.10;;;;;;;;;;4921824;28;20131;-78
2023/09/01 12:16:53;;;;;;;9.50;3.95;;;;;;;;;;4937720;28;20031;-78
2023/09/01 12:19:22;;;;;;;7.10;3.95;;;;;;;;;;4953971;28;20039;-77
2023/09/01 12:21:49;;;;;;;3.92;3.63;;;;;;;;;;4940802;28;20321;-78
2023/09/01 12:24:22;;;;;;;6.55;3.20;;;;;;;;;;4941721;28;20427;-76
2023/09/01 12:26:49;;;;;;;4.93;2.97;;;;;;;;;;4957256;28;20045;-77
2023/09/01 12:29:27;;;;;;;4.15;3.30;;;;;;;;;;4942553;28;20038;-78
2023/09/01 12:31:59;;;;;;;4.72;3.80;;;;;;;;;;4942701;28;20031;-77
2023/09/01 12:34:35;;;;;;;9.00;3.63;;;;;;;;;;4959467;28;20103;-77
2023/09/01 12:37:08;;;;;;;3.97;3.40;;;;;;;;;;4952610;28;20030;-78
2023/09/01 12:39:43;;;;;;;6.97;4.10;;;;;;;;;;4949296;28;20043;-77
2023/09/01 12:42:13;;;;;;;6.22;3.60;;;;;;;;;;4941821;28;20031;-78
2023/09/01 12:44:46;;;;;;;5.57;3.72;;;;;;;;;;4957364;28;20066;-78
2023/09/01 12:47:14;;;;;;;7.78;4.07;;;;;;;;;;4973912;28;20082;-77
2023/09/01 12:50:31;;;;;;;4.97;3.42;;;;;;;;;;4961462;28;20113;-77
2023/09/01 12:53:22;;;;;;;6.85;3.40;;;;;;;;;;4939030;28;20601;-77
2023/09/01 12:55:48;;;;;;;4.82;3.33;;;;;;;;;;4940596;28;20030;-78
2023/09/01 12:58:15;;;;;;;4.80;3.30;;;;;;;;;;4940531;28;20097;-79
2023/09/01 13:00:42;;;;;;;3.80;3.50;;;;;;;;;;4940509;28;20045;-78
2023/09/01 13:03:08;;;;;;;5.80;3.35;;;;;;;;;;4940170;28;20093;-78
2023/09/01 13:05:36;;;;;;;10.30;3.50;;;;;;;;;;4956519;28;20051;-78
2023/09/01 13:08:03;;;;;;;10.77;3.85;;;;;;;;;;4939864;28;20027;-77
2023/09/01 13:10:29;;;;;;;3.42;3.20;;;;;;;;;;4940410;28;20035;-78
2023/09/01 13:12:56;;;;;;;3.50;3.20;;;;;;;;;;4956271;28;20049;-77
2023/09/01 13:15:22;;;;;;;10.30;3.40;;;;;;;;;;4940374;28;20574;-77
2023/09/01 13:17:48;;;;;;;4.25;3.58;;;;;;;;;;4956226;28;20039;-77
2023/09/01 13:20:14;;;;;;;5.28;3.60;;;;;;;;;;4940728;28;20471;-78
2023/09/01 13:22:41;;;;;;;3.13;2.88;;;;;;;;;;4939871;28;20031;-77
2023/09/01 13:25:12;;;;;;;3.00;2.70;;;;;;;;;;4956074;28;20103;-78
2023/09/01 13:27:38;;;;;;;3.70;3.40;;;;;;;;;;4956120;28;20034;-78
2023/09/01 13:30:19;;;;;;;4.30;3.20;;;;;;;;;;4941115;28;20039;-78
2023/09/01 13:32:45;;;;;;;4.43;3.15;;;;;;;;;;4939178;28;20507;-76
2023/09/01 13:35:11;;;;;;;9.52;3.28;;;;;;;;;;4939816;28;20043;-77
2023/09/01 13:37:37;;;;;;;5.85;3.28;;;;;;;;;;4948855;28;20033;-76
2023/09/01 13:40:03;;;;;;;5.85;3.00;;;;;;;;;;4950539;28;20035;-77
2023/09/01 13:42:31;;;;;;;4.03;3.63;;;;;;;;;;4911524;28;20035;-78
2023/09/01 13:44:58;;;;;;;4.45;3.28;;;;;;;;;;4920960;28;20055;-77
2023/09/01 13:47:24;;;;;;;3.70;3.38;;;;;;;;;;4919532;28;20027;-77
2023/09/01 13:49:51;;;;;;;4.13;3.28;;;;;;;;;;4955031;28;20096;-77
2023/09/01 13:52:25;;;;;;;3.75;3.35;;;;;;;;;;4952921;28;20118;-76
2023/09/01 13:54:51;;;;;;;8.40;3.60;;;;;;;;;;4936410;29;20099;-77
2023/09/01 14:00:33;;;;;;;3.17;2.88;;;;;;;;;;4939993;28;20046;-78
2023/09/01 14:02:59;;;;;;;5.93;3.90;;;;;;;;;;4928066;28;20050;-76
2023/09/01 14:05:25;;;;;;;3.17;2.90;;;;;;;;;;4924988;28;20050;-75
2023/09/01 14:07:51;;;;;;;4.60;2.80;;;;;;;;;;4905871;29;20038;-77
2023/09/01 14:10:17;;;;;;;6.43;2.70;;;;;;;;;;4949826;28;20034;-77
2023/09/01 14:12:45;;;;;;;3.90;2.63;;;;;;;;;;4923136;28;20418;-77
2023/09/01 14:15:21;;;;;;;3.35;3.08;;;;;;;;;;4944748;28;20081;-77
2023/09/01 14:17:47;;;;;;;3.35;2.90;;;;;;;;;;4922017;28;20129;-77
2023/09/01 14:20:13;;;;;;;3.08;2.88;;;;;;;;;;4923790;28;20421;-77
2023/09/01 14:22:39;;;;;;;8.45;2.67;;;;;;;;;;4922626;28;20130;-77
2023/09/01 14:25:06;;;;;;;3.88;2.90;;;;;;;;;;4923841;28;20099;-77
2023/09/01 14:27:32;;;;;;;4.43;3.05;;;;;;;;;;4972062;28;20034;-77
2023/09/01 14:29:58;;;;;;;8.50;3.38;;;;;;;;;;4921231;29;20096;-77
2023/09/01 14:32:30;;;;;;;4.18;3.08;;;;;;;;;;4918936;28;20085;-78
2023/09/01 14:34:56;;;;;;;6.32;3.42;;;;;;;;;;4919167;29;20027;-78
2023/09/01 14:37:29;;;;;;;6.10;2.85;;;;;;;;;;4951322;28;20090;-77
2023/09/01 14:40:02;;;;;;;6.88;2.90;;;;;;;;;;4923524;28;20057;-77
2023/09/01 14:42:30;;;;;;;7.20;2.90;;;;;;;;;;4937454;28;20122;-77
2023/09/01 14:44:56;;;;;;;3.92;2.35;;;;;;;;;;4937677;28;20047;-77